Time;durP1;ratioP1;P1;durP2;ratioP2;P2;SDS_P1;SDS_P2;PMS_P1;PMS_P2;Temp;Humidity;BMP_temperature;BMP_pressure;BME280_temperature;BME280_humidity;BME280_pressure;Samples;Min_cycle;Max_cycle;Signal;HPM_P1;HPM_P2
2023/08/03 00:01:24;;;;;;;0.00;0.00;;;19.80;99.90;;;;;;5044672;28;20059;-67
2023/08/03 00:03:50;;;;;;;0.00;0.00;;;19.80;99.90;;;;;;5022318;28;20069;-66
2023/08/03 00:06:15;;;;;;;0.20;0.20;;;19.80;99.90;;;;;;5026922;28;20072;-67
2023/08/03 00:08:41;;;;;;;0.00;0.00;;;19.80;99.90;;;;;;5023352;28;20017;-66
2023/08/03 00:11:07;;;;;;;0.43;0.17;;;19.80;99.90;;;;;;5026577;28;20036;-67
2023/08/03 00:13:32;;;;;;;0.00;0.00;;;19.80;99.90;;;;;;5041658;28;20167;-67
2023/08/03 00:15:58;;;;;;;0.00;0.00;;;19.70;99.90;;;;;;5026512;28;20040;-67
2023/08/03 00:18:24;;;;;;;0.00;0.00;;;19.70;99.90;;;;;;5027088;28;20021;-66
2023/08/03 00:20:50;;;;;;;0.00;0.00;;;19.70;99.90;;;;;;5037438;28;20021;-66
2023/08/03 00:23:16;;;;;;;0.00;0.00;;;19.70;99.90;;;;;;5021167;28;20025;-67
2023/08/03 00:25:42;;;;;;;0.00;0.00;;;19.60;99.90;;;;;;5029634;28;20025;-66
2023/08/03 00:28:07;;;;;;;0.00;0.00;;;19.60;99.90;;;;;;5021056;28;20029;-67
2023/08/03 00:30:33;;;;;;;0.00;0.00;;;19.50;99.90;;;;;;5029893;28;20041;-66
2023/08/03 00:32:59;;;;;;;0.00;0.00;;;19.50;99.90;;;;;;5024180;28;20025;-67
2023/08/03 00:35:24;;;;;;;0.00;0.00;;;19.60;99.90;;;;;;5045082;28;20063;-67
2023/08/03 00:37:51;;;;;;;0.00;0.00;;;19.60;99.90;;;;;;5026331;28;20112;-67
2023/08/03 00:40:17;;;;;;;0.00;0.00;;;19.50;99.90;;;;;;5026602;28;20025;-67
2023/08/03 00:42:43;;;;;;;0.00;0.00;;;19.50;99.90;;;;;;5043958;28;20028;-67
2023/08/03 00:45:11;;;;;;;0.00;0.00;;;19.50;99.90;;;;;;5021764;28;20025;-67
2023/08/03 00:47:38;;;;;;;0.00;0.00;;;19.50;99.90;;;;;;5028248;28;20033;-67
2023/08/03 00:50:04;;;;;;;0.00;0.00;;;19.50;99.90;;;;;;5023387;28;20384;-67
2023/08/03 00:52:31;;;;;;;0.00;0.00;;;19.50;99.90;;;;;;5027839;28;20057;-66
2023/08/03 00:54:57;;;;;;;0.00;0.00;;;19.50;99.90;;;;;;5019144;28;20087;-67
2023/08/03 00:57:23;;;;;;;0.00;0.00;;;19.50;99.90;;;;;;5023596;28;20699;-67
2023/08/03 00:59:48;;;;;;;0.00;0.00;;;19.50;99.90;;;;;;5025211;28;20058;-67
2023/08/03 01:02:14;;;;;;;0.00;0.00;;;19.50;99.90;;;;;;5027698;28;20053;-66
2023/08/03 01:04:39;;;;;;;0.00;0.00;;;19.50;99.90;;;;;;5022188;28;20037;-66
2023/08/03 01:07:06;;;;;;;0.00;0.00;;;19.60;99.90;;;;;;5024143;28;20037;-66
2023/08/03 01:09:31;;;;;;;;;;;19.60;99.90;;;;;;5026913;28;20030;-68
2023/08/03 01:11:57;;;;;;;0.00;0.00;;;19.70;99.90;;;;;;5041063;28;20379;-67
2023/08/03 01:14:23;;;;;;;0.00;0.00;;;19.70;99.90;;;;;;5026089;28;20026;-67
2023/08/03 01:16:48;;;;;;;0.00;0.00;;;19.70;99.90;;;;;;5017880;28;20042;-66
2023/08/03 01:19:15;;;;;;;0.00;0.00;;;19.70;99.90;;;;;;5025535;28;20028;-67
2023/08/03 01:21:43;;;;;;;0.00;0.00;;;19.70;99.90;;;;;;5036702;28;20030;-66
2023/08/03 01:24:09;;;;;;;0.00;0.00;;;19.60;99.90;;;;;;5025128;28;20028;-67
2023/08/03 01:26:35;;;;;;;0.00;0.00;;;19.70;99.90;;;;;;5021753;28;20017;-66
2023/08/03 01:29:00;;;;;;;0.00;0.00;;;19.60;99.90;;;;;;5024703;28;20799;-66
2023/08/03 01:31:26;;;;;;;0.00;0.00;;;19.60;99.90;;;;;;5024189;28;20093;-67
2023/08/03 01:33:53;;;;;;;0.00;0.00;;;19.70;99.90;;;;;;5024173;28;20057;-67
2023/08/03 01:36:18;;;;;;;0.00;0.00;;;19.70;99.90;;;;;;5020986;28;20021;-67
2023/08/03 01:38:44;;;;;;;0.00;0.00;;;19.80;99.90;;;;;;5021752;28;20048;-66
2023/08/03 01:41:10;;;;;;;0.00;0.00;;;19.70;99.90;;;;;;5017527;28;20021;-67
2023/08/03 01:43:35;;;;;;;0.00;0.00;;;19.80;99.90;;;;;;5039357;28;20025;-66
2023/08/03 01:46:01;;;;;;;0.00;0.00;;;19.80;99.90;;;;;;5022868;28;20054;-66
2023/08/03 01:48:27;;;;;;;0.00;0.00;;;19.70;99.90;;;;;;5025272;28;20025;-67
2023/08/03 01:50:52;;;;;;;0.00;0.00;;;19.70;99.90;;;;;;5019702;28;20037;-67
2023/08/03 01:53:18;;;;;;;0.00;0.00;;;19.60;99.90;;;;;;5040123;28;20062;-67
2023/08/03 01:55:45;;;;;;;0.00;0.00;;;19.50;99.90;;;;;;5017861;28;20124;-67
2023/08/03 01:58:13;;;;;;;0.00;0.00;;;19.50;99.90;;;;;;5027397;28;20017;-66
2023/08/03 02:00:39;;;;;;;0.00;0.00;;;19.50;99.90;;;;;;5027118;28;20018;-67
2023/08/03 02:03:04;;;;;;;0.00;0.00;;;19.50;99.90;;;;;;5026407;28;20051;-67
2023/08/03 02:05:30;;;;;;;0.28;0.28;;;19.50;99.90;;;;;;5027531;28;20566;-67
2023/08/03 02:07:55;;;;;;;0.00;0.00;;;19.50;99.90;;;;;;5024114;28;20060;-66
2023/08/03 02:10:23;;;;;;;0.00;0.00;;;19.60;99.90;;;;;;5023432;28;20129;-67
2023/08/03 02:12:49;;;;;;;0.00;0.00;;;19.70;99.90;;;;;;5035927;28;20520;-66
2023/08/03 02:15:15;;;;;;;0.00;0.00;;;19.80;99.90;;;;;;5020999;28;20056;-67
2023/08/03 02:17:42;;;;;;;0.00;0.00;;;19.80;99.90;;;;;;5019864;28;20523;-66
2023/08/03 02:20:09;;;;;;;0.00;0.00;;;19.70;99.90;;;;;;5023941;28;20578;-66
2023/08/03 02:22:35;;;;;;;0.00;0.00;;;19.70;99.90;;;;;;5041812;28;20472;-67
2023/08/03 02:25:01;;;;;;;0.03;0.03;;;19.70;99.90;;;;;;5023552;28;20084;-66
2023/08/03 02:27:26;;;;;;;;;;;19.70;99.90;;;;;;5024607;28;20121;-67
2023/08/03 02:29:52;;;;;;;0.00;0.00;;;19.80;99.90;;;;;;5038874;28;20042;-67
2023/08/03 02:32:19;;;;;;;0.10;0.10;;;19.80;99.90;;;;;;5036277;28;20025;-66
2023/08/03 02:34:45;;;;;;;0.00;0.00;;;19.90;99.90;;;;;;5022681;28;20071;-67
2023/08/03 02:37:11;;;;;;;0.00;0.00;;;20.00;99.90;;;;;;5028631;28;20030;-66
2023/08/03 02:39:36;;;;;;;0.00;0.00;;;20.00;99.90;;;;;;5021573;28;20035;-67
2023/08/03 02:42:02;;;;;;;0.00;0.00;;;20.00;99.90;;;;;;5023167;28;20096;-66
2023/08/03 02:44:28;;;;;;;0.00;0.00;;;20.10;99.90;;;;;;5020644;28;20022;-67
2023/08/03 02:46:53;;;;;;;0.03;0.03;;;20.10;99.90;;;;;;5020695;28;20033;-66
2023/08/03 02:49:19;;;;;;;0.00;0.00;;;20.10;99.90;;;;;;5024092;28;20044;-67
2023/08/03 02:51:45;;;;;;;0.00;0.00;;;20.00;99.90;;;;;;5020351;28;20021;-66
2023/08/03 02:54:10;;;;;;;0.00;0.00;;;20.10;99.90;;;;;;5035737;28;20388;-66
2023/08/03 02:56:36;;;;;;;0.00;0.00;;;20.10;99.90;;;;;;5020142;28;20047;-67
2023/08/03 02:59:01;;;;;;;0.00;0.00;;;20.10;99.90;;;;;;5019508;28;20113;-66
2023/08/03 03:01:27;;;;;;;0.00;0.00;;;20.10;99.90;;;;;;5027638;28;20033;-67
2023/08/03 03:03:53;;;;;;;0.00;0.00;;;20.10;99.90;;;;;;5023504;28;20030;-67
2023/08/03 03:06:18;;;;;;;0.00;0.00;;;20.00;99.90;;;;;;5026888;28;20036;-67
2023/08/03 03:08:44;;;;;;;0.00;0.00;;;20.00;99.90;;;;;;5024858;28;20029;-66
2023/08/03 03:11:10;;;;;;;0.00;0.00;;;20.00;99.90;;;;;;5035725;28;20029;-67
2023/08/03 03:13:35;;;;;;;0.08;0.05;;;20.00;99.90;;;;;;5022805;28;20049;-67
2023/08/03 03:16:01;;;;;;;0.00;0.00;;;20.20;99.90;;;;;;5020800;28;20049;-67
2023/08/03 03:18:27;;;;;;;0.00;0.00;;;20.20;99.90;;;;;;5026940;28;20091;-67
2023/08/03 03:20:52;;;;;;;0.00;0.00;;;20.30;99.90;;;;;;5035380;28;20479;-66
2023/08/03 03:23:18;;;;;;;0.00;0.00;;;20.30;99.90;;;;;;5020833;28;20052;-67
2023/08/03 03:25:44;;;;;;;0.00;0.00;;;20.40;99.90;;;;;;5023270;28;20049;-66
2023/08/03 03:28:09;;;;;;;0.00;0.00;;;20.50;99.90;;;;;;5022300;28;20099;-67
2023/08/03 03:30:35;;;;;;;0.00;0.00;;;20.60;99.90;;;;;;5023991;28;20044;-66
2023/08/03 03:33:01;;;;;;;0.00;0.00;;;20.60;99.90;;;;;;5022846;28;20028;-67
2023/08/03 03:35:26;;;;;;;0.00;0.00;;;20.60;99.90;;;;;;5021687;28;20032;-66
2023/08/03 03:37:52;;;;;;;0.00;0.00;;;20.60;99.90;;;;;;5023636;28;20117;-67
2023/08/03 03:40:18;;;;;;;0.00;0.00;;;20.60;99.90;;;;;;5039025;28;20221;-67
2023/08/03 03:42:43;;;;;;;0.00;0.00;;;20.60;99.90;;;;;;5018768;28;20028;-67
2023/08/03 03:45:09;;;;;;;0.00;0.00;;;20.60;99.90;;;;;;5035080;28;20028;-66
2023/08/03 03:47:35;;;;;;;0.00;0.00;;;20.60;99.90;;;;;;5040033;28;20056;-66
2023/08/03 03:50:00;;;;;;;0.00;0.00;;;20.50;99.90;;;;;;5023812;28;20179;-67
2023/08/03 03:52:26;;;;;;;0.00;0.00;;;20.50;99.90;;;;;;5027306;28;20409;-67
2023/08/03 03:54:52;;;;;;;0.00;0.00;;;20.60;99.90;;;;;;5019475;28;20021;-67
2023/08/03 03:57:17;;;;;;;0.10;0.10;;;20.60;99.90;;;;;;5040126;28;20044;-66
2023/08/03 03:59:43;;;;;;;0.00;0.00;;;20.70;99.90;;;;;;5016325;28;20025;-67
2023/08/03 04:02:09;;;;;;;0.00;0.00;;;20.60;99.90;;;;;;5038417;28;20128;-67
2023/08/03 04:04:34;;;;;;;0.00;0.00;;;20.70;99.90;;;;;;5023027;28;20017;-67
2023/08/03 04:07:00;;;;;;;0.00;0.00;;;20.60;99.90;;;;;;5023206;28;20037;-67
2023/08/03 04:09:26;;;;;;;0.00;0.00;;;20.60;99.90;;;;;;5023006;28;20056;-67
2023/08/03 04:11:51;;;;;;;0.00;0.00;;;20.50;99.90;;;;;;5039170;28;20037;-66
2023/08/03 04:14:17;;;;;;;0.00;0.00;;;20.60;99.90;;;;;;5019003;28;20383;-66
2023/08/03 04:16:43;;;;;;;0.00;0.00;;;20.60;99.90;;;;;;5026292;28;20041;-66
2023/08/03 04:19:08;;;;;;;0.00;0.00;;;20.70;99.90;;;;;;5019623;28;20026;-66
2023/08/03 04:21:34;;;;;;;0.00;0.00;;;20.80;99.90;;;;;;5028952;28;20075;-67
2023/08/03 04:23:59;;;;;;;0.00;0.00;;;20.80;99.90;;;;;;5018140;28;20033;-67
2023/08/03 04:26:25;;;;;;;0.00;0.00;;;20.90;99.90;;;;;;5036728;28;20018;-66
2023/08/03 04:28:51;;;;;;;0.00;0.00;;;21.00;99.90;;;;;;5019202;28;20037;-67
2023/08/03 04:31:16;;;;;;;0.00;0.00;;;21.10;99.90;;;;;;5025434;28;20193;-65
2023/08/03 04:33:42;;;;;;;0.00;0.00;;;21.10;99.90;;;;;;5042745;28;20108;-67
2023/08/03 04:36:08;;;;;;;0.00;0.00;;;21.20;99.90;;;;;;5026110;28;20065;-67
2023/08/03 04:38:33;;;;;;;0.00;0.00;;;21.30;99.90;;;;;;5041561;28;20028;-67
2023/08/03 04:41:01;;;;;;;0.00;0.00;;;21.30;99.90;;;;;;5021739;28;20017;-67
2023/08/03 04:43:27;;;;;;;0.00;0.00;;;21.30;99.90;;;;;;5040748;28;20017;-67
2023/08/03 04:45:53;;;;;;;0.00;0.00;;;21.20;99.90;;;;;;5019920;28;20029;-66
2023/08/03 04:48:19;;;;;;;0.00;0.00;;;21.20;99.90;;;;;;5023145;28;20107;-66
2023/08/03 04:50:45;;;;;;;0.00;0.00;;;21.20;99.90;;;;;;5026656;28;20417;-66
2023/08/03 04:53:10;;;;;;;0.00;0.00;;;21.20;99.90;;;;;;5027579;28;20021;-67
2023/08/03 04:55:36;;;;;;;0.00;0.00;;;21.20;99.90;;;;;;5022606;28;20037;-67
2023/08/03 04:58:02;;;;;;;0.00;0.00;;;21.20;99.90;;;;;;5024141;28;20029;-66
2023/08/03 05:00:28;;;;;;;0.00;0.00;;;21.30;99.90;;;;;;5044923;28;20029;-66
2023/08/03 05:02:53;;;;;;;0.00;0.00;;;21.40;99.90;;;;;;5026978;28;20064;-66
2023/08/03 05:05:19;;;;;;;0.00;0.00;;;21.40;99.90;;;;;;5027017;28;20032;-67
2023/08/03 05:07:45;;;;;;;0.00;0.00;;;21.50;99.90;;;;;;5024186;28;20109;-66
2023/08/03 05:10:10;;;;;;;0.00;0.00;;;21.40;99.90;;;;;;5022078;28;20087;-66
2023/08/03 05:12:38;;;;;;;0.00;0.00;;;21.40;99.90;;;;;;5018357;28;20029;-66
2023/08/03 05:15:04;;;;;;;0.17;0.10;;;21.50;99.90;;;;;;5040377;28;20859;-67
2023/08/03 05:17:30;;;;;;;0.00;0.00;;;21.50;99.90;;;;;;5020319;28;20463;-67
2023/08/03 05:19:56;;;;;;;0.00;0.00;;;21.60;99.90;;;;;;5025340;28;20122;-66
2023/08/03 05:22:21;;;;;;;0.00;0.00;;;21.60;99.90;;;;;;5029361;28;20028;-67
2023/08/03 05:24:47;;;;;;;0.00;0.00;;;21.70;99.90;;;;;;5023451;28;20484;-66
2023/08/03 05:27:13;;;;;;;0.03;0.03;;;21.80;99.90;;;;;;5027575;28;20025;-66
2023/08/03 05:29:42;;;;;;;0.00;0.00;;;21.80;99.90;;;;;;5017555;28;20040;-67
2023/08/03 05:32:08;;;;;;;0.00;0.00;;;21.80;99.90;;;;;;5029364;28;20030;-68
2023/08/03 05:34:34;;;;;;;0.00;0.00;;;21.90;99.90;;;;;;5024663;28;20032;-67
2023/08/03 05:37:00;;;;;;;0.00;0.00;;;21.90;99.90;;;;;;5028035;28;20634;-68
2023/08/03 05:39:26;;;;;;;0.00;0.00;;;22.00;99.90;;;;;;5022331;28;20061;-68
2023/08/03 05:41:52;;;;;;;0.05;0.03;;;22.00;99.90;;;;;;5027379;28;20447;-70
2023/08/03 05:44:17;;;;;;;0.17;0.17;;;22.00;99.90;;;;;;5022341;28;20051;-69
2023/08/03 05:46:44;;;;;;;0.00;0.00;;;22.00;99.90;;;;;;5037423;28;20037;-67
2023/08/03 05:49:10;;;;;;;0.00;0.00;;;22.00;99.90;;;;;;5022146;28;20112;-67
2023/08/03 05:51:35;;;;;;;0.00;0.00;;;22.10;99.90;;;;;;5044364;28;20851;-68
2023/08/03 05:54:01;;;;;;;0.00;0.00;;;22.20;99.90;;;;;;5043453;28;20526;-67
2023/08/03 05:56:27;;;;;;;0.00;0.00;;;22.40;99.90;;;;;;5036029;28;20041;-68
2023/08/03 05:58:53;;;;;;;0.00;0.00;;;22.70;99.90;;;;;;5027625;28;20087;-66
2023/08/03 06:01:23;;;;;;;0.00;0.00;;;23.00;99.90;;;;;;5029803;28;20036;-67
2023/08/03 06:03:52;;;;;;;0.00;0.00;;;23.20;99.90;;;;;;5021689;28;20060;-67
2023/08/03 06:06:19;;;;;;;0.00;0.00;;;23.40;99.90;;;;;;5025894;28;20017;-67
2023/08/03 06:08:51;;;;;;;0.00;0.00;;;23.50;99.90;;;;;;5017581;28;20108;-67
2023/08/03 06:11:20;;;;;;;0.00;0.00;;;23.40;99.90;;;;;;5024587;28;20029;-67
2023/08/03 06:13:46;;;;;;;0.00;0.00;;;23.20;99.90;;;;;;5021070;28;20669;-66
2023/08/03 06:16:13;;;;;;;0.00;0.00;;;23.10;99.90;;;;;;5022887;28;20021;-67
2023/08/03 06:18:49;;;;;;;0.08;0.05;;;23.00;99.90;;;;;;5016672;28;20025;-67
2023/08/03 06:21:18;;;;;;;0.00;0.00;;;22.90;99.90;;;;;;5028185;28;20013;-66
2023/08/03 06:23:46;;;;;;;0.00;0.00;;;22.80;99.90;;;;;;5017406;28;21013;-66
2023/08/03 06:26:14;;;;;;;0.00;0.00;;;22.60;99.90;;;;;;5038943;28;20468;-66
2023/08/03 06:28:39;;;;;;;0.00;0.00;;;22.50;99.90;;;;;;5029096;28;20021;-67
2023/08/03 06:31:18;;;;;;;0.00;0.00;;;22.40;99.90;;;;;;5028737;28;20972;-67
2023/08/03 06:33:46;;;;;;;0.00;0.00;;;22.30;99.90;;;;;;5025190;28;20052;-67
2023/08/03 06:36:20;;;;;;;0.00;0.00;;;22.20;99.90;;;;;;5024411;28;20808;-67
2023/08/03 06:38:46;;;;;;;0.00;0.00;;;22.20;99.90;;;;;;5039095;28;20021;-70
2023/08/03 06:41:13;;;;;;;0.00;0.00;;;22.10;99.90;;;;;;5045428;28;20104;-70
2023/08/03 06:43:39;;;;;;;0.00;0.00;;;22.00;99.90;;;;;;5019646;28;20026;-62
2023/08/03 06:46:05;;;;;;;0.00;0.00;;;21.90;99.90;;;;;;5022140;28;20029;-62
2023/08/03 06:48:34;;;;;;;0.00;0.00;;;21.90;99.90;;;;;;5020272;28;20033;-61
2023/08/03 06:51:02;;;;;;;0.00;0.00;;;21.80;99.90;;;;;;5025167;28;20496;-62
2023/08/03 06:53:28;;;;;;;0.00;0.00;;;21.80;99.90;;;;;;5030732;28;20028;-62
2023/08/03 06:55:53;;;;;;;0.00;0.00;;;21.70;99.90;;;;;;5021535;28;20393;-62
2023/08/03 06:58:19;;;;;;;0.00;0.00;;;21.70;99.90;;;;;;5024328;28;20028;-62
2023/08/03 07:00:45;;;;;;;0.00;0.00;;;21.70;99.90;;;;;;5025898;28;20075;-62
2023/08/03 07:03:12;;;;;;;0.00;0.00;;;21.70;99.90;;;;;;5028551;28;20018;-61
2023/08/03 07:05:38;;;;;;;0.00;0.00;;;21.70;99.90;;;;;;5023607;28;20707;-62
2023/08/03 07:08:04;;;;;;;0.00;0.00;;;21.60;99.90;;;;;;5020884;28;20796;-61
2023/08/03 07:10:30;;;;;;;0.00;0.00;;;21.60;99.90;;;;;;5022080;28;20022;-62
2023/08/03 07:12:56;;;;;;;0.00;0.00;;;21.60;99.90;;;;;;5023889;28;20041;-62
2023/08/03 07:15:21;;;;;;;0.00;0.00;;;21.60;99.90;;;;;;5020098;28;20030;-62
2023/08/03 07:17:47;;;;;;;0.00;0.00;;;21.60;99.90;;;;;;5024958;28;20033;-62
2023/08/03 07:20:13;;;;;;;0.00;0.00;;;21.50;99.90;;;;;;5041493;28;20024;-62
2023/08/03 07:22:39;;;;;;;0.00;0.00;;;21.50;99.90;;;;;;5034516;28;20026;-61
2023/08/03 07:25:05;;;;;;;0.00;0.00;;;21.60;99.90;;;;;;5024263;28;20104;-62
2023/08/03 07:27:31;;;;;;;;;;;21.60;99.90;;;;;;5032915;28;20030;-63
2023/08/03 07:29:57;;;;;;;0.00;0.00;;;21.70;99.90;;;;;;5026426;28;19904;-62
2023/08/03 07:32:23;;;;;;;0.00;0.00;;;21.70;99.90;;;;;;5024869;28;20032;-63
2023/08/03 07:34:49;;;;;;;0.00;0.00;;;21.70;99.90;;;;;;5028313;28;20052;-62
2023/08/03 07:37:14;;;;;;;0.00;0.00;;;21.70;99.90;;;;;;5036701;28;20017;-62
2023/08/03 07:39:40;;;;;;;0.00;0.00;;;21.60;99.90;;;;;;5016271;28;20033;-62
2023/08/03 07:42:06;;;;;;;0.00;0.00;;;21.70;99.90;;;;;;5023300;28;20028;-62
2023/08/03 07:44:32;;;;;;;0.00;0.00;;;21.70;99.90;;;;;;5034389;28;20029;-62
2023/08/03 07:46:58;;;;;;;0.00;0.00;;;21.80;99.90;;;;;;5017124;28;20032;-62
2023/08/03 07:49:23;;;;;;;0.00;0.00;;;21.80;99.90;;;;;;5024934;28;20049;-62
2023/08/03 07:51:49;;;;;;;0.00;0.00;;;21.80;99.90;;;;;;5024913;28;20545;-61
2023/08/03 07:54:15;;;;;;;0.03;0.03;;;21.80;99.90;;;;;;5023298;28;20029;-62
2023/08/03 07:56:41;;;;;;;0.00;0.00;;;21.80;99.90;;;;;;5022819;28;20041;-62
2023/08/03 07:59:10;;;;;;;0.00;0.00;;;21.80;99.90;;;;;;5025621;28;20048;-61
2023/08/03 08:01:36;;;;;;;0.00;0.00;;;21.80;99.90;;;;;;5028701;28;20025;-61
2023/08/03 08:04:02;;;;;;;0.00;0.00;;;21.80;99.90;;;;;;5030407;28;20107;-62
2023/08/03 08:06:28;;;;;;;;;;;21.90;99.90;;;;;;5024561;28;20512;-62
2023/08/03 08:08:54;;;;;;;0.28;0.10;;;21.90;99.90;;;;;;5039842;28;19956;-61
2023/08/03 08:11:20;;;;;;;0.05;0.05;;;21.90;99.90;;;;;;5024371;28;20025;-61
2023/08/03 08:13:46;;;;;;;0.03;0.03;;;21.90;99.90;;;;;;5032494;28;20038;-62
2023/08/03 08:16:13;;;;;;;0.00;0.00;;;21.90;99.90;;;;;;5034291;28;20024;-62
2023/08/03 08:18:39;;;;;;;0.00;0.00;;;21.90;99.90;;;;;;5026769;28;20427;-62
2023/08/03 08:21:10;;;;;;;0.00;0.00;;;22.00;99.90;;;;;;5029654;28;20024;-62
2023/08/03 08:23:37;;;;;;;0.00;0.00;;;22.00;99.90;;;;;;5022953;28;20115;-62
2023/08/03 08:26:15;;;;;;;0.00;0.00;;;22.00;99.90;;;;;;5026714;28;21339;-62
2023/08/03 08:28:42;;;;;;;0.00;0.00;;;22.10;99.90;;;;;;5025974;28;20029;-62
2023/08/03 08:31:08;;;;;;;0.00;0.00;;;22.10;99.90;;;;;;5030031;28;20037;-61
2023/08/03 08:33:34;;;;;;;0.00;0.00;;;22.00;99.90;;;;;;5026987;28;20036;-62
2023/08/03 08:36:00;;;;;;;0.00;0.00;;;22.10;99.90;;;;;;5042583;28;20026;-62
2023/08/03 08:38:26;;;;;;;0.00;0.00;;;22.00;99.90;;;;;;5024451;28;20471;-62
2023/08/03 08:40:52;;;;;;;0.00;0.00;;;22.00;99.90;;;;;;5030121;28;20030;-62
2023/08/03 08:43:18;;;;;;;;;;;22.10;99.90;;;;;;5028119;28;20014;-61
2023/08/03 08:45:44;;;;;;;0.00;0.00;;;22.00;99.90;;;;;;5027596;28;20380;-62
2023/08/03 08:48:10;;;;;;;0.00;0.00;;;22.00;99.90;;;;;;5021033;28;20025;-62
2023/08/03 08:50:36;;;;;;;0.00;0.00;;;21.90;99.90;;;;;;5041626;28;20064;-62
2023/08/03 08:53:02;;;;;;;0.00;0.00;;;21.90;99.90;;;;;;5024609;28;20511;-62
2023/08/03 08:55:30;;;;;;;0.00;0.00;;;21.90;99.90;;;;;;5041302;28;20063;-62
2023/08/03 08:57:58;;;;;;;0.00;0.00;;;21.90;99.90;;;;;;5026341;28;20044;-62
2023/08/03 09:00:25;;;;;;;0.00;0.00;;;21.90;99.90;;;;;;5026082;28;20529;-62
2023/08/03 09:03:00;;;;;;;0.00;0.00;;;21.90;99.90;;;;;;5030049;28;20021;-61
2023/08/03 09:05:28;;;;;;;0.00;0.00;;;21.80;99.90;;;;;;5042365;28;20472;-62
2023/08/03 09:08:05;;;;;;;0.03;0.03;;;21.80;99.90;;;;;;5025724;28;20029;-62
2023/08/03 09:10:45;;;;;;;0.00;0.00;;;21.80;99.90;;;;;;5026101;28;20060;-62
2023/08/03 09:13:28;;;;;;;0.00;0.00;;;21.80;99.90;;;;;;5039797;28;20033;-62
2023/08/03 09:15:54;;;;;;;0.00;0.00;;;21.80;99.90;;;;;;5023420;28;20083;-62
2023/08/03 09:18:27;;;;;;;0.00;0.00;;;21.80;99.90;;;;;;5031153;28;20032;-62
2023/08/03 09:21:14;;;;;;;0.00;0.00;;;21.80;99.90;;;;;;5027206;28;20033;-61
2023/08/03 09:23:41;;;;;;;0.00;0.00;;;21.70;99.90;;;;;;5021105;28;20010;-62
2023/08/03 09:26:06;;;;;;;;;;;21.60;99.90;;;;;;5034218;28;20052;-61
2023/08/03 09:28:36;;;;;;;0.00;0.00;;;21.60;99.90;;;;;;5025582;28;19955;-62
2023/08/03 09:31:03;;;;;;;0.00;0.00;;;21.60;99.90;;;;;;5030682;28;20104;-62
2023/08/03 09:33:29;;;;;;;0.00;0.00;;;21.50;99.90;;;;;;5040623;28;20025;-62
2023/08/03 09:36:11;;;;;;;0.00;0.00;;;21.60;99.90;;;;;;5035684;28;20108;-62
2023/08/03 09:38:38;;;;;;;0.00;0.00;;;21.70;99.90;;;;;;5022406;28;20029;-62
2023/08/03 09:41:04;;;;;;;0.00;0.00;;;21.60;99.90;;;;;;5028355;28;20025;-62
2023/08/03 09:43:30;;;;;;;0.00;0.00;;;21.60;99.90;;;;;;5029337;28;20067;-63
2023/08/03 09:45:57;;;;;;;0.00;0.00;;;21.60;99.90;;;;;;5031417;28;20484;-63
2023/08/03 09:48:24;;;;;;;0.00;0.00;;;21.70;99.90;;;;;;5038259;28;20029;-62
2023/08/03 09:50:55;;;;;;;0.00;0.00;;;21.80;99.90;;;;;;5023718;28;20033;-63
2023/08/03 09:53:25;;;;;;;0.00;0.00;;;21.90;99.90;;;;;;5029023;28;20025;-62
2023/08/03 09:55:58;;;;;;;0.00;0.00;;;21.90;99.90;;;;;;5046136;28;20488;-63
2023/08/03 09:58:29;;;;;;;0.00;0.00;;;22.00;99.90;;;;;;5027391;28;20478;-62
2023/08/03 10:00:58;;;;;;;0.00;0.00;;;22.00;99.90;;;;;;5032584;28;20028;-63
2023/08/03 10:03:26;;;;;;;0.00;0.00;;;22.10;99.90;;;;;;5044733;28;20033;-62
2023/08/03 10:06:16;;;;;;;0.00;0.00;;;22.10;99.90;;;;;;5032595;28;20069;-62
2023/08/03 10:08:55;;;;;;;0.00;0.00;;;22.10;99.90;;;;;;5028505;28;20140;-62
2023/08/03 10:11:28;;;;;;;0.00;0.00;;;22.10;99.90;;;;;;5026403;28;20519;-62
2023/08/03 10:13:58;;;;;;;0.00;0.00;;;22.20;99.90;;;;;;5026961;28;20087;-62
2023/08/03 10:16:24;;;;;;;0.00;0.00;;;22.30;99.90;;;;;;5027138;28;20473;-62
2023/08/03 10:18:50;;;;;;;;;;;22.30;99.90;;;;;;5029538;28;20030;-62
2023/08/03 10:21:16;;;;;;;0.00;0.00;;;22.40;99.90;;;;;;5023833;28;19909;-62
2023/08/03 10:24:11;;;;;;;0.00;0.00;;;22.30;99.90;;;;;;5025442;28;20021;-62
2023/08/03 10:26:37;;;;;;;0.00;0.00;;;22.30;99.90;;;;;;5020716;28;20021;-62
2023/08/03 10:29:06;;;;;;;0.00;0.00;;;22.30;99.90;;;;;;5021981;28;20079;-63
2023/08/03 10:31:32;;;;;;;0.00;0.00;;;22.30;99.90;;;;;;5028091;28;20036;-62
2023/08/03 10:33:57;;;;;;;0.00;0.00;;;22.40;99.90;;;;;;5026151;28;20484;-63
2023/08/03 10:36:29;;;;;;;0.00;0.00;;;22.50;99.90;;;;;;5048608;28;20025;-62
2023/08/03 10:38:59;;;;;;;1.02;0.20;;;22.60;99.90;;;;;;5025326;28;20416;-62
2023/08/03 10:41:27;;;;;;;0.00;0.00;;;22.80;99.90;;;;;;5020029;28;20520;-62
2023/08/03 10:44:05;;;;;;;0.00;0.00;;;22.70;99.90;;;;;;5020530;28;20365;-62
2023/08/03 10:46:33;;;;;;;0.00;0.00;;;22.60;99.90;;;;;;5038183;28;20029;-62
2023/08/03 10:48:59;;;;;;;0.00;0.00;;;22.40;99.90;;;;;;5023494;28;20035;-63
2023/08/03 10:51:25;;;;;;;0.00;0.00;;;22.30;99.90;;;;;;5028398;28;20032;-63
2023/08/03 10:53:51;;;;;;;0.00;0.00;;;22.30;99.90;;;;;;5023029;28;20033;-63
2023/08/03 10:56:17;;;;;;;0.00;0.00;;;22.20;99.90;;;;;;5036826;28;20512;-62
2023/08/03 10:58:48;;;;;;;0.00;0.00;;;22.00;99.90;;;;;;5022859;28;20107;-62
2023/08/03 11:01:24;;;;;;;0.00;0.00;;;22.10;99.90;;;;;;5027064;28;20424;-63
2023/08/03 11:03:50;;;;;;;0.00;0.00;;;22.30;99.90;;;;;;5026515;28;20021;-63
2023/08/03 11:06:16;;;;;;;;;;;22.30;99.90;;;;;;5028272;28;20551;-63
2023/08/03 11:08:44;;;;;;;0.00;0.00;;;22.20;99.90;;;;;;5023052;28;19915;-63
2023/08/03 11:11:21;;;;;;;0.00;0.00;;;22.10;99.90;;;;;;5018638;28;20017;-62
2023/08/03 11:13:47;;;;;;;0.00;0.00;;;22.20;99.90;;;;;;5028023;28;20033;-62
2023/08/03 11:16:20;;;;;;;;;;;22.10;99.90;;;;;;5037885;28;20095;-62
2023/08/03 11:18:46;;;;;;;0.00;0.00;;;22.10;99.90;;;;;;5022754;28;19913;-62
2023/08/03 11:21:12;;;;;;;;;;;22.00;99.90;;;;;;5041638;28;20461;-62
2023/08/03 11:23:37;;;;;;;0.00;0.00;;;21.90;99.90;;;;;;5020832;28;19920;-63
2023/08/03 11:26:06;;;;;;;0.00;0.00;;;21.80;99.90;;;;;;5020554;28;20033;-64
2023/08/03 11:28:42;;;;;;;0.00;0.00;;;21.80;99.90;;;;;;5032533;28;20028;-65
2023/08/03 11:31:18;;;;;;;0.00;0.00;;;21.70;99.90;;;;;;5043072;28;20052;-62
2023/08/03 11:33:48;;;;;;;0.00;0.00;;;21.70;99.90;;;;;;5038347;28;20029;-63
2023/08/03 11:36:19;;;;;;;0.00;0.00;;;21.80;99.90;;;;;;5028486;28;20682;-63
2023/08/03 11:38:45;;;;;;;0.00;0.00;;;21.90;99.90;;;;;;5023697;28;20396;-62
2023/08/03 11:41:13;;;;;;;0.00;0.00;;;22.00;99.90;;;;;;5015673;28;20022;-63
2023/08/03 11:43:39;;;;;;;0.00;0.00;;;22.10;99.90;;;;;;5027257;28;20025;-62
2023/08/03 11:46:04;;;;;;;0.00;0.00;;;22.20;99.90;;;;;;5026828;28;20055;-63
2023/08/03 11:48:31;;;;;;;0.00;0.00;;;22.30;99.90;;;;;;5023746;28;20759;-63
2023/08/03 11:50:57;;;;;;;;;;;22.20;99.90;;;;;;5031982;28;20017;-62
2023/08/03 11:53:27;;;;;;;0.00;0.00;;;22.10;99.90;;;;;;5028511;28;19928;-62
2023/08/03 11:55:53;;;;;;;0.00;0.00;;;22.10;99.90;;;;;;5041358;28;20033;-62
2023/08/03 11:58:26;;;;;;;0.00;0.00;;;22.00;99.90;;;;;;5026621;28;20032;-62
2023/08/03 12:01:02;;;;;;;0.00;0.00;;;22.30;99.90;;;;;;5030187;28;20684;-62
2023/08/03 12:03:35;;;;;;;5.53;0.20;;;22.40;99.90;;;;;;5024090;28;20021;-62
2023/08/03 12:06:08;;;;;;;0.00;0.00;;;22.50;99.90;;;;;;5028387;28;20021;-62
2023/08/03 12:08:45;;;;;;;0.00;0.00;;;22.40;99.90;;;;;;5026734;28;20029;-62
2023/08/03 12:11:14;;;;;;;0.00;0.00;;;22.20;99.90;;;;;;5043157;28;20025;-63
2023/08/03 12:13:40;;;;;;;0.00;0.00;;;22.20;99.90;;;;;;5029250;28;20052;-66
2023/08/03 12:16:06;;;;;;;0.00;0.00;;;22.20;99.90;;;;;;5039084;28;20119;-62
2023/08/03 12:18:31;;;;;;;0.00;0.00;;;22.30;99.90;;;;;;5031470;28;20044;-62
2023/08/03 12:20:57;;;;;;;0.00;0.00;;;22.10;99.90;;;;;;5026687;28;20494;-62
2023/08/03 12:23:23;;;;;;;0.00;0.00;;;21.60;99.90;;;;;;5030967;28;20021;-63
2023/08/03 12:25:49;;;;;;;0.00;0.00;;;21.20;99.90;;;;;;5026003;28;20109;-62
2023/08/03 12:28:14;;;;;;;0.00;0.00;;;21.00;99.90;;;;;;5041584;28;20091;-62
2023/08/03 12:30:40;;;;;;;0.00;0.00;;;20.90;99.90;;;;;;5037548;28;20025;-62
2023/08/03 12:33:08;;;;;;;0.00;0.00;;;20.90;99.90;;;;;;5020946;28;20072;-63
2023/08/03 12:35:34;;;;;;;0.00;0.00;;;21.00;99.90;;;;;;5032894;28;20547;-62
2023/08/03 12:38:00;;;;;;;0.00;0.00;;;21.20;99.90;;;;;;5024758;28;20061;-63
2023/08/03 12:40:27;;;;;;;0.00;0.00;;;21.30;99.90;;;;;;5022310;28;20544;-63
2023/08/03 12:42:53;;;;;;;0.00;0.00;;;21.50;99.90;;;;;;5030046;28;20055;-63
2023/08/03 12:45:19;;;;;;;0.00;0.00;;;21.70;99.90;;;;;;5027315;28;20075;-62
2023/08/03 12:47:45;;;;;;;0.00;0.00;;;21.60;99.90;;;;;;5021608;28;20440;-63
2023/08/03 12:50:11;;;;;;;0.00;0.00;;;21.50;99.90;;;;;;5028738;28;20388;-63